Flight Track Log - Related Links

Times and Time Zones

All times are in EDT time to prevent confusion due to time zone crossing. See the UAL906 flight status page for this flight to view local times or setup timezone preferences in your user account.

Time Position Orientation Groundspeed Altitude Reporting Facility
EDT Latitude Longitude Course Direction KTS MPH feet Rate Location/Type
Fri 07:08:13 AM 50.0530 8.6200 71° East 184 212 1,700  Level FlightAware ADS-B
Fri 07:08:42 AM 50.0610 8.6560 71° East 188 216 2,600 1,810 Climbing FlightAware ADS-B
Fri 07:09:16 AM 50.0710 8.7010 71° East 197 227 3,600 1,565 Climbing FlightAware ADS-B
Fri 07:09:28 AM 50.0790 8.7160 50° Northeast 209 241 3,800 750 Climbing FlightAware ADS-B
Fri 07:09:40 AM 50.0900 8.7250 28° Northeast 225 259 3,900 1,364 Climbing FlightAware ADS-B
Fri 07:10:12 AM 50.1220 8.7450 22° Northeast 246 283 4,800 1,552 Climbing FlightAware ADS-B
Fri 07:10:38 AM 50.1530 8.7660 23° Northeast 270 311 5,400 1,902 Climbing FlightAware ADS-B
Fri 07:11:34 AM 50.2130 8.7750 North 276 318 7,400 2,500 Climbing FlightAware ADS-B
Fri 07:12:02 AM 50.2560 8.7500 340° North 274 315 8,900 2,786 Climbing FlightAware ADS-B
Fri 07:12:30 AM 50.2860 8.7240 331° Northwest 278 320 10,000 1,583 Climbing FlightAware ADS-B
Fri 07:13:14 AM 50.3370 8.6760 329° Northwest 309 356 10,800 1,286 Climbing FlightAware ADS-B
Fri 07:13:54 AM 50.3900 8.6280 330° Northwest 333 383 11,800 1,500 Climbing FlightAware ADS-B
Fri 07:14:30 AM 50.4290 8.5630 313° West 354 407 12,700 1,459 Climbing FlightAware ADS-B
Fri 07:15:08 AM 50.4610 8.4800 301° West 369 425 13,600 1,714 Climbing FlightAware ADS-B
Fri 07:15:54 AM 50.5020 8.3710 301° West 375 432 15,100 2,163 Climbing FlightAware ADS-B
Fri 07:16:34 AM 50.5370 8.2770 300° West 370 426 16,700 2,000 Climbing FlightAware ADS-B
Fri 07:17:18 AM 50.5760 8.1750 301° West 377 434 17,900 1,643 Climbing FlightAware ADS-B
Fri 07:17:58 AM 50.6120 8.0800 301° West 385 443 19,000 1,500 Climbing FlightAware ADS-B
Fri 07:18:42 AM 50.6510 7.9740 300° West 392 451 20,000 1,425 Climbing FlightAware ADS-B
Fri 07:19:18 AM 50.6840 7.8850 300° West 397 457 20,900 1,421 Climbing FlightAware ADS-B
Fri 07:19:58 AM 50.7200 7.7860 300° West 403 464 21,800 1,462 Climbing FlightAware ADS-B
Fri 07:20:36 AM 50.7580 7.6840 301° West 406 467 22,800 1,429 Climbing FlightAware ADS-B
Fri 07:21:22 AM 50.8010 7.5660 300° West 411 473 23,800 1,326 Climbing FlightAware ADS-B
Fri 07:22:02 AM 50.8390 7.4610 300° West 416 479 24,700 1,143 Climbing FlightAware ADS-B
Fri 07:22:46 AM 50.8810 7.3460 300° West 425 489 25,400 714 Climbing FlightAware ADS-B
Fri 07:23:26 AM 50.9210 7.2370 300° West 443 510 25,700 450 Climbing FlightAware ADS-B
Fri 07:24:06 AM 50.9610 7.1190 298° West 450 518 26,000 846 Climbing FlightAware ADS-B
Fri 07:24:44 AM 50.9880 7.0000 290° West 454 522 26,800 1,171 Climbing FlightAware ADS-B
Fri 07:25:28 AM 51.0130 6.8600 286° West 459 528 27,600 1,050 Climbing FlightAware ADS-B
Fri 07:26:04 AM 51.0330 6.7420 285° West 463 533 28,200 1,026 Climbing FlightAware ADS-B
Fri 07:26:44 AM 51.0550 6.6120 285° West 465 535 28,900 1,143 Climbing FlightAware ADS-B
Fri 07:27:28 AM 51.0790 6.4700 285° West 464 534 29,800 1,077 Climbing FlightAware ADS-B
Fri 07:28:02 AM 51.0970 6.3600 285° West 466 536 30,300 868 Climbing FlightAware ADS-B
Fri 07:28:44 AM 51.1210 6.2170 285° West 471 542 30,900 923 Climbing FlightAware ADS-B
Fri 07:29:20 AM 51.1400 6.0990 284° West 471 542 31,500 1,111 Climbing FlightAware ADS-B
Fri 07:30:05 AM 51.1660 5.9440 285° West 468 539 32,400 1,079 Climbing FlightAware ADS-B
Fri 07:30:49 AM 51.1810 5.7960 279° West 467 537 33,100 878 Climbing FlightAware ADS-B
Fri 07:31:27 AM 51.1820 5.6660 271° West 467 537 33,600 667 Climbing FlightAware ADS-B
Fri 07:32:10 AM 51.1820 5.5200 270° West 471 542 34,000 276 Climbing FlightAware ADS-B
Fri 07:32:54 AM 51.1800 5.3640 269° West 473 544 34,000  Level FlightAware ADS-B
Fri 07:33:40 AM 51.1820 5.2130 271° West 473 544 34,000  Level FlightAware ADS-B
Fri 07:34:25 AM 51.1960 5.0540 278° West 474 545 34,000  Level FlightAware ADS-B
Fri 07:35:06 AM 51.2100 4.9120 279° West 475 547 34,000 -71 Level FlightAware ADS-B
Fri 07:35:50 AM 51.2248 4.7556 279° West 482 555 33,900  Descending FlightAware UK
Fri 07:35:51 AM 51.2250 4.7540 279° West 476 548 34,000 146 Climbing FlightAware ADS-B
Fri 07:36:31 AM 51.2380 4.6190 279° West 477 549 34,000  Level FlightAware ADS-B
Fri 07:37:08 AM 51.2515 4.4848 279° West 486 559 34,000  Level FlightAware UK
Fri 07:37:11 AM 51.2520 4.4780 279° West 477 549 34,000  Level FlightAware ADS-B
Fri 07:37:56 AM 51.2660 4.3300 279° West 477 549 34,000  Level FlightAware ADS-B
Fri 07:38:39 AM 51.2810 4.1740 279° West 478 550 34,000  Level FlightAware ADS-B
Fri 07:39:23 AM 51.2950 4.0210 278° West 478 550 34,000  Level FlightAware ADS-B
Fri 07:40:03 AM 51.3070 3.8870 278° West 478 550 34,000  Level FlightAware ADS-B
Fri 07:40:41 AM 51.3190 3.7530 278° West 478 550 34,000  Level FlightAware ADS-B
Fri 07:41:29 AM 51.3350 3.5720 278° West 480 552 34,000  Level FlightAware ADS-B
Fri 07:42:01 AM 51.3442 3.4590 278° West 480 552 34,000  Level FlightAware UK
Fri 07:42:03 AM 51.3450 3.4570 278° West 481 554 34,000  Level FlightAware ADS-B
Fri 07:42:37 AM 51.3549 3.3320 278° West 482 555 34,000  Level FlightAware UK
Fri 07:42:49 AM 51.3580 3.2970 278° West 482 555 34,000  Level FlightAware ADS-B
Fri 07:43:34 AM 51.3720 3.1360 278° West 482 555 34,000  Level FlightAware ADS-B
Fri 07:44:12 AM 51.3830 3.0000 277° West 482 555 34,000  Level FlightAware ADS-B
Fri 07:44:59 AM 51.3960 2.8400 277° West 482 555 34,000  Level FlightAware ADS-B
Fri 07:45:37 AM 51.4070 2.7040 277° West 481 554 34,000  Level FlightAware ADS-B
Fri 07:46:14 AM 51.4180 2.5720 278° West 481 554 34,000  Level FlightAware ADS-B
Fri 07:47:04 AM 51.4310 2.3950 277° West 480 552 34,000  Level FlightAware ADS-B
Fri 07:47:37 AM 51.4406 2.2731 277° West 482 555 34,000  Level FlightAware UK
Fri 07:47:42 AM 51.4410 2.2650 277° West 480 552 34,000 -167 Level FlightAware ADS-B
Fri 07:48:13 AM 51.4502 2.1462 277° West 480 552 33,900  Descending FlightAware UK
Fri 07:48:29 AM 51.4540 2.0910 277° West 481 554 34,000 111 Climbing FlightAware ADS-B
Fri 07:49:07 AM 51.4644 1.9563 277° West 482 555 34,000  Level FlightAware UK
Fri 07:49:08 AM 51.4640 1.9600 277° West 482 555 34,000  Level FlightAware ADS-B
Fri 07:49:53 AM 51.4760 1.7950 277° West 483 556 34,000  Level FlightAware ADS-B
Fri 07:50:33 AM 51.4860 1.6580 277° West 480 552 34,000  Level FlightAware ADS-B
Fri 07:51:13 AM 51.5000 1.5160 279° West 479 551 34,000  Level FlightAware ADS-B
Fri 07:51:57 AM 51.5100 1.3610 276° West 482 555 34,000  Level FlightAware ADS-B
Fri 07:52:39 AM 51.5120 1.2120 271° West 483 556 34,000  Level FlightAware ADS-B
Fri 07:53:19 AM 51.5130 1.0700 271° West 482 555 34,000 -79 Level FlightAware ADS-B
Fri 07:53:55 AM 51.5129 0.9363 271° West 482 555 33,900  Descending FlightAware UK
Fri 07:54:02 AM 51.5130 0.9150 271° West 481 554 34,000 128 Climbing FlightAware ADS-B
Fri 07:54:42 AM 51.5130 0.7750 270° West 479 551 34,000  Level FlightAware ADS-B
Fri 07:55:27 AM 51.5120 0.6200 269° West 478 550 34,000 -77 Level FlightAware ADS-B
Fri 07:56:00 AM 51.5115 0.4915 269° West 478 550 33,900  Descending FlightAware UK
Fri 07:56:11 AM 51.5110 0.4650 269° West 478 550 34,000 118 Climbing FlightAware ADS-B
Fri 07:56:51 AM 51.5110 0.3210 270° West 477 549 34,000 380 Level FlightAware ADS-B
Fri 07:57:30 AM 51.5100 0.1820 269° West 476 548 34,500 560 Climbing FlightAware ADS-B
Fri 07:58:06 AM 51.5088 0.0485 269° West 476 548 34,700 409 Climbing FlightAware UK
Fri 07:58:14 AM 51.5090 0.0250 269° West 480 552 34,800 679 Climbing FlightAware ADS-B
Fri 07:58:59 AM 51.5070 -0.1360 269° West 481 554 35,300 643 Climbing FlightAware ADS-B
Fri 07:59:38 AM 51.5060 -0.2790 269° West 479 551 35,700 568 Climbing FlightAware ADS-B
Fri 08:00:13 AM 51.5040 -0.3970 268° West 480 552 36,000 212 Climbing FlightAware ADS-B
Fri 08:01:03 AM 51.5020 -0.5750 269° West 479 551 36,000  Level FlightAware ADS-B (KGJT)
Fri 08:01:43 AM 51.5000 -0.7180 269° West 478 550 36,000  Level FlightAware ADS-B (KGJT)
Fri 08:02:27 AM 51.4980 -0.8680 269° West 477 549 36,000  Level FlightAware ADS-B (KGJT)
Fri 08:03:03 AM 51.5060 -1.0030 269° West 474 545 36,000 -136 Level FlightAware ADS-B (KGJT)
Fri 08:03:11 AM 51.5091 -1.0308 269° West 472 543 35,900  Descending FlightAware UK
Fri 08:03:41 AM 51.5226 -1.1339 269° West 472 543 36,000 182 Climbing FlightAware UK
Fri 08:03:44 AM 51.5230 -1.1380 269° West 475 547 36,000  Level FlightAware ADS-B (KGJT)
Fri 08:04:22 AM 51.5390 -1.2680 281° West 475 547 36,000  Level FlightAware ADS-B
Fri 08:05:04 AM 51.5570 -1.4080 282° West 475 547 36,000  Level FlightAware ADS-B
Fri 08:05:40 AM 51.5730 -1.5370 281° West 477 549 36,000  Level FlightAware ADS-B
Fri 08:06:17 AM 51.5855 -1.6728 281° West 472 543 36,000  Level FlightAware UK
Fri 08:06:24 AM 51.5860 -1.6890 281° West 478 550 36,000  Level FlightAware ADS-B
Fri 08:07:04 AM 51.5960 -1.8330 276° West 479 551 36,000  Level FlightAware ADS-B
Fri 08:07:48 AM 51.6050 -1.9950 275° West 480 552 36,000  Level FlightAware ADS-B
Fri 08:08:24 AM 51.6120 -2.1160 275° West 481 554 36,000  Level FlightAware ADS-B
Fri 08:09:12 AM 51.6220 -2.2910 275° West 482 555 36,000  Level FlightAware ADS-B
Fri 08:09:54 AM 51.6300 -2.4410 275° West 483 556 36,000  Level FlightAware ADS-B
Fri 08:10:30 AM 51.6370 -2.5690 275° West 484 557 36,000  Level FlightAware ADS-B
Fri 08:11:22 AM 51.6467 -2.7597 275° West 474 545 36,000  Level FlightAware UK
Fri 08:11:34 AM 51.6470 -2.7680 275° West 485 558 36,000  Level FlightAware ADS-B
Fri 08:12:19 AM 51.6570 -2.9600 275° West 485 558 36,000  Level FlightAware ADS-B
Fri 08:12:59 AM 51.6640 -3.1010 275° West 486 559 36,000  Level FlightAware ADS-B
Fri 08:13:40 AM 51.6713 -3.2547 275° West 474 545 36,000  Level FlightAware UK
Fri 08:13:43 AM 51.6710 -3.2590 275° West 487 560 36,000  Level FlightAware ADS-B
Fri 08:14:23 AM 51.6780 -3.4030 275° West 488 562 36,000  Level FlightAware ADS-B
Fri 08:14:59 AM 51.6840 -3.5340 274° West 489 563 36,000  Level FlightAware ADS-B
Fri 08:15:39 AM 51.6912 -3.6886 274° West 476 548 36,000  Level FlightAware UK
Fri 08:15:45 AM 51.6920 -3.7070 274° West 490 564 36,000  Level FlightAware ADS-B
Fri 08:16:31 AM 51.6990 -3.8730 274° West 490 564 36,000  Level FlightAware ADS-B
Fri 08:17:12 AM 51.7050 -4.0190 274° West 490 564 36,000  Level FlightAware ADS-B
Fri 08:17:52 AM 51.7110 -4.1690 274° West 489 563 36,000  Level FlightAware ADS-B
Fri 08:18:28 AM 51.7160 -4.2970 274° West 489 563 36,000  Level FlightAware ADS-B
Fri 08:19:03 AM 51.7214 -4.4283 274° West 476 548 36,000  Level FlightAware UK
Fri 08:19:13 AM 51.7230 -4.4610 274° West 489 563 36,000  Level FlightAware ADS-B
Fri 08:19:49 AM 51.7270 -4.5950 273° West 490 564 36,000  Level FlightAware ADS-B
Fri 08:20:29 AM 51.7330 -4.7400 274° West 491 565 36,000  Level FlightAware ADS-B
Fri 08:21:09 AM 51.7377 -4.8864 274° West 474 545 36,000  Level FlightAware UK
Fri 08:21:09 AM 51.7380 -4.8870 274° West 491 565 36,000  Level FlightAware ADS-B
Fri 08:21:50 AM 51.7420 -5.0300 273° West 492 566 36,000  Level FlightAware ADS-B
Fri 08:22:31 AM 51.7480 -5.1870 273° West 493 567 36,000  Level FlightAware ADS-B
Fri 08:22:33 AM 51.7478 -5.1936 273° West 474 545 36,000  Level FlightAware UK
Fri 08:23:03 AM 51.7510 -5.3037 273° West 474 545 36,000  Level FlightAware UK
Fri 08:23:18 AM 51.7530 -5.3570 273° West 494 568 36,000  Level FlightAware ADS-B
Fri 08:23:58 AM 51.7570 -5.4980 273° West 494 568 36,000  Level FlightAware ADS-B
Fri 08:24:42 AM 51.7610 -5.6660 272° West 495 570 36,000  Level FlightAware ADS-B
Fri 08:25:14 AM 51.7650 -5.7850 272° West 496 571 36,000  Level FlightAware ADS-B
Fri 08:25:15 AM 51.7647 -5.7891 272° West 474 545 36,000 -194 Level FlightAware UK
Fri 08:25:45 AM 51.7674 -5.8997 272° West 476 548 35,900  Descending FlightAware UK
Fri 08:25:57 AM 51.7690 -5.9430 272° West 496 571 36,000 111 Climbing FlightAware ADS-B
Fri 08:26:39 AM 51.7720 -6.0930 272° West 497 572 36,000  Level FlightAware ADS-B
Fri 08:27:21 AM 51.7759 -6.2537 272° West 478 550 36,000  Level FlightAware UK
Fri 08:27:21 AM 51.7760 -6.2510 272° West 497 572 36,000 -200 Level FlightAware ADS-B
Fri 08:27:51 AM 51.7781 -6.3646 272° West 478 550 35,900  Descending FlightAware UK
Fri 08:28:03 AM 51.7790 -6.4090 272° West 497 572 36,000 107 Climbing FlightAware ADS-B
Fri 08:28:47 AM 51.7800 -6.5700 271° West 497 572 36,000  Level FlightAware ADS-B
Fri 08:29:25 AM 51.7740 -6.7130 271° West 496 571 36,000  Level FlightAware ADS-B
Fri 08:29:27 AM 51.7741 -6.7193 271° West 476 548 36,000  Level FlightAware UK
Fri 08:29:57 AM 51.7675 -6.8297 271° West 478 550 36,000  Level FlightAware UK
Fri 08:30:21 AM 51.7620 -6.9190 271° West 496 571 36,000  Level FlightAware ADS-B
Fri 08:31:03 AM 51.7526 -7.0720 271° West 478 550 36,000  Level FlightAware UK
Fri 08:31:03 AM 51.7530 -7.0710 271° West 495 570 36,000 -171 Level FlightAware ADS-B
Fri 08:31:38 AM 51.7446 -7.2033 271° West 478 550 35,900  Descending FlightAware UK
Fri 08:31:39 AM 51.7450 -7.2040 271° West 495 570 36,000 146 Climbing FlightAware ADS-B
Fri 08:32:19 AM 51.7360 -7.3410 264° West 494 568 36,000  Level FlightAware ADS-B
Fri 08:32:59 AM 51.7270 -7.4840 264° West 494 568 36,000  Level FlightAware ADS-B
Fri 08:33:38 AM 51.7175 -7.6421 264° West 476 548 36,000  Level FlightAware UK
Fri 08:33:38 AM 51.7180 -7.6270 264° West 494 568 36,000  Level FlightAware ADS-B
Fri 08:34:08 AM 51.7104 -7.7516 264° West 476 548 36,000  Level FlightAware UK
Fri 08:34:19 AM 51.7080 -7.7850 264° West 494 568 36,000  Level FlightAware ADS-B
Fri 08:35:01 AM 51.6980 -7.9330 264° West 493 567 36,000  Level FlightAware ADS-B
Fri 08:35:38 AM 51.6885 -8.0800 264° West 478 550 36,000  Level FlightAware UK
Fri 08:35:46 AM 51.6870 -8.1010 264° West 493 567 36,000  Level FlightAware ADS-B
Fri 08:36:26 AM 51.6770 -8.2420 264° West 493 567 36,000  Level FlightAware ADS-B
Fri 08:37:06 AM 51.6660 -8.3930 263° West 492 566 36,000  Level FlightAware ADS-B
Fri 08:37:44 AM 51.6555 -8.5374 263° West 480 552 36,000  Level FlightAware UK
Fri 08:37:46 AM 51.6560 -8.5360 263° West 491 565 36,000  Level FlightAware ADS-B
Fri 08:38:27 AM 51.6450 -8.6820 263° West 490 564 36,000  Level FlightAware ADS-B
Fri 08:39:06 AM 51.6340 -8.8250 263° West 489 563 36,000  Level FlightAware ADS-B
Fri 08:39:44 AM 51.6230 -8.9707 263° West 480 552 36,000  Level FlightAware UK
Fri 08:39:51 AM 51.6220 -8.9840 263° West 487 560 36,000  Level FlightAware ADS-B
Fri 08:40:30 AM 51.6120 -9.1170 263° West 486 559 36,000  Level FlightAware ADS-B
Fri 08:41:13 AM 51.5990 -9.2810 263° West 486 559 36,000  Level FlightAware ADS-B
Fri 08:41:54 AM 51.5880 -9.4190 263° West 484 557 36,000  Level FlightAware ADS-B
Fri 08:42:39 AM 51.5750 -9.5810 263° West 484 557 36,000  Level FlightAware ADS-B
Fri 08:43:19 AM 51.5630 -9.7250 262° West 484 557 36,000  Level FlightAware ADS-B
Fri 08:44:01 AM 51.5500 -9.8790 262° West 484 557 36,000  Level FlightAware ADS-B
Fri 08:44:41 AM 51.5380 -10.0230 262° West 484 557 36,000  Level FlightAware ADS-B
Fri 08:45:21 AM 51.5260 -10.1630 262° West 485 558 36,000  Level FlightAware ADS-B
Fri 08:46:06 AM 51.5120 -10.3250 262° West 486 559 36,000  Level FlightAware ADS-B
Fri 08:47:02 AM 51.4950 -10.5180 262° West 488 562 36,000  Level FlightAware ADS-B
Fri 08:47:54 AM 51.4770 -10.7060 261° West 489 563 36,000  Level FlightAware ADS-B
Fri 08:48:30 AM 51.4650 -10.8350 262° West 489 563 36,000  Level FlightAware ADS-B
Fri 08:49:25 AM 51.4480 -11.0250 262° West 490 564 36,000  Level FlightAware ADS-B
Fri 08:50:13 AM 51.4310 -11.2030 261° West 491 565 36,000  Level FlightAware ADS-B
Fri 08:50:51 AM 51.4180 -11.3340 261° West 489 563 36,000  Level FlightAware ADS-B
Fri 08:51:35 AM 51.4010 -11.5090 261° West 491 565 36,000  Level FlightAware ADS-B
Fri 08:52:44 AM 51.3770 -11.7330 260° West 491 565 36,000  Level FlightAware ADS-B
Fri 08:53:20 AM 51.3650 -11.8430 260° West 491 565 36,000  Level FlightAware ADS-B
Fri 08:54:08 AM 51.3490 -11.9890 260° West 491 565 36,000  Level FlightAware ADS-B
Fri 08:54:57 AM 51.3330 -12.1380 260° West 491 565 36,000  Level FlightAware ADS-B
Fri 08:55:33 AM 51.3200 -12.2480 259° West 491 565 36,000  Level FlightAware ADS-B
Fri 08:56:11 AM 51.3080 -12.3630 261° West 491 565 36,000  Level FlightAware ADS-B
Fri 08:56:59 AM 51.2920 -12.5090 260° West 491 565 36,000  Level FlightAware ADS-B
Fri 08:57:35 AM 51.2790 -12.6190 259° West 491 565 36,000  Level FlightAware ADS-B
Fri 08:58:23 AM 51.2630 -12.7640 260° West 491 565 36,000  Level FlightAware ADS-B
Fri 08:59:09 AM 51.2480 -12.9040 260° West 491 565 36,000  Level FlightAware ADS-B
Fri 08:59:57 AM 51.2320 -13.0500 260° West 491 565 36,000  Level FlightAware ADS-B
Fri 09:00:34 AM 51.2190 -13.1620 260° West 491 565 36,000  Level FlightAware ADS-B
Fri 09:01:12 AM 51.2070 -13.2780 261° West 491 565 36,000  Level FlightAware ADS-B
Fri 09:01:48 AM 51.1940 -13.3870 259° West 491 565 36,000  Level FlightAware ADS-B
Fri 09:04:00 AM 51.2849 -13.7836 290° West  Level Estimated
Fri 09:05:00 AM 51.3258 -13.9644 290° West  Level Estimated
Fri 09:06:00 AM 51.3664 -14.1455 290° West  Level Estimated
Fri 09:07:00 AM 51.4068 -14.3270 290° West  Level Estimated
Fri 09:08:00 AM 51.4468 -14.5087 290° West  Level Estimated
Fri 09:09:00 AM 51.4866 -14.6908 289° West  Level Estimated
Fri 09:10:00 AM 51.5261 -14.8732 289° West  Level Estimated
Fri 09:11:00 AM 51.5653 -15.0559 289° West  Level Estimated
Fri 09:12:00 AM 51.6042 -15.2389 289° West  Level Estimated
Fri 09:13:00 AM 51.6428 -15.4223 289° West  Level Estimated
Fri 09:14:00 AM 51.6812 -15.6059 289° West  Level Estimated
Fri 09:15:00 AM 51.7193 -15.7899 289° West  Level Estimated
Fri 09:16:00 AM 51.7570 -15.9741 288° West  Level Estimated
Fri 09:17:00 AM 51.7945 -16.1587 288° West  Level Estimated
Fri 09:18:00 AM 51.8317 -16.3436 288° West  Level Estimated
Fri 09:19:00 AM 51.8686 -16.5288 288° West  Level Estimated
Fri 09:20:00 AM 51.9053 -16.7143 288° West  Level Estimated
Fri 09:21:00 AM 51.9416 -16.9000 288° West  Level Estimated
Fri 09:22:00 AM 51.9776 -17.0861 288° West  Level Estimated
Fri 09:23:00 AM 52.0134 -17.2725 287° West  Level Estimated
Fri 09:24:00 AM 52.0488 -17.4592 287° West  Level Estimated
Fri 09:25:00 AM 52.0840 -17.6462 287° West  Level Estimated
Fri 09:26:00 AM 52.1188 -17.8335 287° West  Level Estimated
Fri 09:27:00 AM 52.1534 -18.0210 287° West  Level Estimated
Fri 09:28:00 AM 52.1876 -18.2089 287° West  Level Estimated
Fri 09:29:00 AM 52.2216 -18.3970 286° West  Level Estimated
Fri 09:30:00 AM 52.2570 -18.5955 286° West  Level Estimated
Fri 09:31:00 AM 52.2921 -18.7942 286° West  Level Estimated
Fri 09:32:00 AM 52.3269 -18.9933 286° West  Level Estimated
Fri 09:33:00 AM 52.3613 -19.1927 286° West  Level Estimated
Fri 09:33:00 AM 51.0000 -20.0000 274° West 462 532 36,000  Level ETMS Enhanced Traffic Management System
Fri 09:34:00 AM 52.3954 -19.3924 286° West  Level Estimated
Fri 09:35:00 AM 52.4290 -19.5913 286° West  Level Estimated
Fri 09:36:00 AM 52.4623 -19.7906 285° West  Level Estimated
Fri 09:37:00 AM 52.4952 -19.9901 285° West  Level Estimated
Fri 09:38:00 AM 52.5278 -20.1900 285° West  Level Estimated
Fri 09:39:00 AM 51.0459 -21.2220 273° West 462 532 36,000  Level FlightAware Transoceanic
Fri 09:40:00 AM 51.0523 -21.4259 273° West 462 532 36,000  Level FlightAware Transoceanic
Fri 09:41:00 AM 51.0583 -21.6298 273° West 462 532 36,000  Level FlightAware Transoceanic
Fri 09:42:00 AM 51.0640 -21.8338 272° West 462 532 36,000  Level FlightAware Transoceanic
Fri 09:43:00 AM 51.0694 -22.0379 272° West 462 532 36,000  Level FlightAware Transoceanic
Fri 09:44:00 AM 51.0743 -22.2419 272° West 462 532 36,000  Level FlightAware Transoceanic
Fri 09:45:00 AM 51.0790 -22.4461 272° West 462 532 36,000  Level FlightAware Transoceanic
Fri 09:46:00 AM 51.0832 -22.6502 272° West 462 532 36,000  Level FlightAware Transoceanic
Fri 09:47:00 AM 51.0872 -22.8545 272° West 462 532 36,000  Level FlightAware Transoceanic
Fri 09:48:00 AM 51.0907 -23.0587 272° West 462 532 36,000  Level FlightAware Transoceanic
Fri 09:49:00 AM 51.0939 -23.2630 271° West 462 532 36,000  Level FlightAware Transoceanic
Fri 09:50:00 AM 51.0968 -23.4673 271° West 462 532 36,000  Level FlightAware Transoceanic
Fri 09:51:00 AM 51.0993 -23.6716 271° West 462 532 36,000  Level FlightAware Transoceanic
Fri 09:52:00 AM 51.1014 -23.8759 271° West 462 532 36,000  Level FlightAware Transoceanic
Fri 09:53:00 AM 51.1032 -24.0803 271° West 462 532 36,000  Level FlightAware Transoceanic
Fri 09:54:00 AM 51.1046 -24.2846 271° West 462 532 36,000  Level FlightAware Transoceanic
Fri 09:55:00 AM 51.1057 -24.4890 270° West 462 532 36,000  Level FlightAware Transoceanic
Fri 09:56:00 AM 51.1064 -24.6934 270° West 462 532 36,000  Level FlightAware Transoceanic
Fri 09:57:00 AM 51.1068 -24.8978 270° West 462 532 36,000  Level FlightAware Transoceanic
Fri 09:58:00 AM 51.1068 -25.1022 270° West 462 532 36,000  Level FlightAware Transoceanic
Fri 09:59:00 AM 51.1064 -25.3066 270° West 462 532 36,000  Level FlightAware Transoceanic
Fri 10:00:00 AM 51.1057 -25.5110 270° West 462 532 36,000  Level FlightAware Transoceanic
Fri 10:01:00 AM 51.1046 -25.7154 269° West 462 532 36,000  Level FlightAware Transoceanic
Fri 10:02:00 AM 51.1032 -25.9197 269° West 462 532 36,000  Level FlightAware Transoceanic
Fri 10:03:00 AM 51.1014 -26.1241 269° West 462 532 36,000  Level FlightAware Transoceanic
Fri 10:04:00 AM 51.0993 -26.3284 269° West 462 532 36,000  Level FlightAware Transoceanic
Fri 10:05:00 AM 51.0968 -26.5327 269° West 462 532 36,000  Level FlightAware Transoceanic
Fri 10:06:00 AM 51.0939 -26.7370 269° West 462 532 36,000  Level FlightAware Transoceanic
Fri 10:07:00 AM 51.0907 -26.9413 268° West 462 532 36,000  Level FlightAware Transoceanic
Fri 10:08:00 AM 51.0872 -27.1455 268° West 462 532 36,000  Level FlightAware Transoceanic
Fri 10:09:00 AM 51.0832 -27.3498 268° West 462 532 36,000  Level FlightAware Transoceanic
Fri 10:10:00 AM 51.0790 -27.5539 268° West 462 532 36,000  Level FlightAware Transoceanic
Fri 10:11:00 AM 51.0743 -27.7581 268° West 462 532 36,000  Level FlightAware Transoceanic
Fri 10:12:00 AM 51.0694 -27.9621 268° West 462 532 36,000  Level FlightAware Transoceanic
Fri 10:13:00 AM 51.0640 -28.1662 268° West 462 532 36,000  Level FlightAware Transoceanic
Fri 10:14:00 AM 51.0583 -28.3702 267° West 462 532 36,000  Level FlightAware Transoceanic
Fri 10:15:00 AM 51.0523 -28.5741 267° West 462 532 36,000  Level FlightAware Transoceanic
Fri 10:16:00 AM 51.0459 -28.7780 267° West 462 532 36,000  Level FlightAware Transoceanic
Fri 10:17:00 AM 51.0391 -28.9818 267° West 462 532 36,000  Level FlightAware Transoceanic
Fri 10:18:00 AM 51.0320 -29.1856 267° West 462 532 36,000  Level FlightAware Transoceanic
Fri 10:19:00 AM 51.0245 -29.3893 267° West 462 532 36,000  Level FlightAware Transoceanic
Fri 10:20:00 AM 51.0167 -29.5929 266° West 462 532 36,000  Level FlightAware Transoceanic
Fri 10:21:00 AM 51.0085 -29.7965 266° West 462 532 36,000  Level FlightAware Transoceanic
Fri 10:22:00 AM 51.0002 -29.9962 266° West  Level FlightAware Approximate
Fri 10:23:00 AM 50.9916 -30.1958 266° West  Level FlightAware Approximate
Fri 10:24:00 AM 50.9717 -30.1874 257° West  Level FlightAware Approximate
Fri 10:25:00 AM 50.9420 -30.3821 256° West  Level FlightAware Approximate
Fri 10:26:00 AM 50.9119 -30.5765 256° West  Level FlightAware Approximate
Fri 10:27:00 AM 50.8816 -30.7706 256° West  Level FlightAware Approximate
Fri 10:28:00 AM 50.8509 -30.9645 256° West  Level FlightAware Approximate
Fri 10:29:00 AM 50.8199 -31.1581 256° West  Level FlightAware Approximate
Fri 10:30:00 AM 50.7886 -31.3515 256° West  Level FlightAware Approximate
Fri 10:31:00 AM 50.7569 -31.5446 256° West  Level FlightAware Approximate
Fri 10:32:00 AM 50.7249 -31.7374 255° West  Level FlightAware Approximate
Fri 10:33:00 AM 50.6926 -31.9300 255° West  Level FlightAware Approximate
Fri 10:34:00 AM 50.6600 -32.1223 255° West  Level FlightAware Approximate
Fri 10:35:00 AM 50.6271 -32.3144 255° West  Level FlightAware Approximate
Fri 10:36:00 AM 50.5939 -32.5062 255° West  Level FlightAware Approximate
Fri 10:37:00 AM 50.5603 -32.6977 255° West  Level FlightAware Approximate
Fri 10:38:00 AM 50.5265 -32.8889 255° West  Level FlightAware Approximate
Fri 10:39:00 AM 50.4923 -33.0799 254° West  Level FlightAware Approximate
Fri 10:40:00 AM 50.4578 -33.2705 254° West  Level FlightAware Approximate
Fri 10:41:00 AM 50.4230 -33.4609 254° West  Level FlightAware Approximate
Fri 10:42:00 AM 50.3879 -33.6511 254° West  Level FlightAware Approximate
Fri 10:43:00 AM 50.3525 -33.8409 254° West  Level FlightAware Approximate
Fri 10:44:00 AM 50.3167 -34.0304 254° West  Level FlightAware Approximate
Fri 10:45:00 AM 50.2807 -34.2197 253° West  Level FlightAware Approximate
Fri 10:46:00 AM 50.2444 -34.4087 253° West  Level FlightAware Approximate
Fri 10:47:00 AM 50.2077 -34.5974 253° West  Level FlightAware Approximate
Fri 10:48:00 AM 50.1708 -34.7858 253° West  Level FlightAware Approximate
Fri 10:49:00 AM 50.1335 -34.9739 253° West  Level FlightAware Approximate
Fri 10:50:00 AM 50.0960 -35.1617 253° West  Level FlightAware Approximate
Fri 10:51:00 AM 50.0581 -35.3492 253° West  Level FlightAware Approximate
Fri 10:52:00 AM 50.0199 -35.5364 252° West  Level FlightAware Approximate
Fri 10:53:00 AM 49.9815 -35.7234 252° West  Level FlightAware Approximate
Fri 10:54:00 AM 49.9427 -35.9100 252° West  Level FlightAware Approximate
Fri 10:55:00 AM 49.9036 -36.0963 252° West  Level FlightAware Approximate
Fri 10:56:00 AM 49.8643 -36.2823 252° West  Level FlightAware Approximate
Fri 10:57:00 AM 49.8246 -36.4680 252° West  Level FlightAware Approximate
Fri 10:58:00 AM 49.7847 -36.6535 252° West  Level FlightAware Approximate
Fri 10:59:00 AM 49.7444 -36.8386 251° West  Level FlightAware Approximate
Fri 11:00:00 AM 49.7039 -37.0233 251° West  Level FlightAware Approximate
Fri 11:01:00 AM 49.6630 -37.2078 251° West  Level FlightAware Approximate
Fri 11:02:00 AM 49.6219 -37.3920 251° West  Level FlightAware Approximate
Fri 11:03:00 AM 49.5805 -37.5759 251° West  Level FlightAware Approximate
Fri 11:04:00 AM 49.5388 -37.7594 251° West  Level FlightAware Approximate
Fri 11:05:00 AM 49.4968 -37.9426 251° West  Level FlightAware Approximate
Fri 11:06:00 AM 49.4545 -38.1255 250° West  Level FlightAware Approximate
Fri 11:07:00 AM 49.4119 -38.3082 250° West  Level FlightAware Approximate
Fri 11:08:00 AM 49.3690 -38.4904 250° West  Level FlightAware Approximate
Fri 11:09:00 AM 49.3259 -38.6724 250° West  Level FlightAware Approximate
Fri 11:10:00 AM 49.2824 -38.8541 250° West  Level FlightAware Approximate
Fri 11:11:00 AM 49.2387 -39.0354 250° West  Level FlightAware Approximate
Fri 11:12:00 AM 49.1947 -39.2164 250° West  Level FlightAware Approximate
Fri 11:13:00 AM 49.1505 -39.3967 250° West  Level FlightAware Approximate
Fri 11:14:00 AM 49.1060 -39.5768 249° West  Level FlightAware Approximate
Fri 11:15:00 AM 49.0612 -39.7565 249° West  Level FlightAware Approximate
Fri 11:16:00 AM 49.0162 -39.9358 249° West  Level FlightAware Approximate
Fri 11:17:00 AM 48.9713 -40.1151 249° West  Level FlightAware Approximate
Fri 11:18:00 AM 48.9262 -40.2941 249° West  Level FlightAware Approximate
Fri 11:19:00 AM 48.8810 -40.4729 249° West  Level FlightAware Approximate
Fri 11:20:00 AM 48.8354 -40.6513 249° West  Level FlightAware Approximate
Fri 11:21:00 AM 48.7895 -40.8294 249° West  Level FlightAware Approximate
Fri 11:22:00 AM 48.7434 -41.0071 249° West  Level FlightAware Approximate
Fri 11:23:00 AM 48.6970 -41.1846 248° West  Level FlightAware Approximate
Fri 11:24:00 AM 48.6508 -41.3619 249° West  Level FlightAware Approximate
Fri 11:25:00 AM 48.6052 -41.5395 249° West  Level FlightAware Approximate
Fri 11:26:00 AM 48.5593 -41.7168 249° West  Level FlightAware Approximate
Fri 11:27:00 AM 48.5131 -41.8937 249° West  Level FlightAware Approximate
Fri 11:28:00 AM 48.4666 -42.0703 248° West  Level FlightAware Approximate
Fri 11:29:00 AM 48.4199 -42.2465 248° West  Level FlightAware Approximate
Fri 11:30:00 AM 48.3729 -42.4225 248° West  Level FlightAware Approximate
Fri 11:31:00 AM 48.3257 -42.5981 248° West  Level FlightAware Approximate
Fri 11:32:00 AM 48.2781 -42.7734 248° West  Level FlightAware Approximate
Fri 11:33:00 AM 48.2304 -42.9483 248° West  Level FlightAware Approximate
Fri 11:34:00 AM 48.1823 -43.1230 248° West  Level FlightAware Approximate
Fri 11:35:00 AM 48.1340 -43.2973 247° West  Level FlightAware Approximate
Fri 11:36:00 AM 48.0854 -43.4713 247° West  Level FlightAware Approximate
Fri 11:37:00 AM 48.0365 -43.6449 247° West  Level FlightAware Approximate
Fri 11:38:00 AM 47.9874 -43.8182 247° West  Level FlightAware Approximate
Fri 11:39:00 AM 47.9381 -43.9912 247° West  Level FlightAware Approximate
Fri 11:40:00 AM 47.8884 -44.1639 247° West  Level FlightAware Approximate
Fri 11:41:00 AM 47.8386 -44.3362 247° West  Level FlightAware Approximate
Fri 11:42:00 AM 47.7884 -44.5082 247° West  Level FlightAware Approximate
Fri 11:43:00 AM 47.7380 -44.6799 246° West  Level FlightAware Approximate
Fri 11:44:00 AM 47.6874 -44.8512 246° West  Level FlightAware Approximate
Fri 11:45:00 AM 47.6365 -45.0222 246° West  Level FlightAware Approximate
Fri 11:46:00 AM 47.5853 -45.1929 246° West  Level FlightAware Approximate
Fri 11:47:00 AM 47.5339 -45.3632 246° West  Level FlightAware Approximate
Fri 11:48:00 AM 47.4822 -45.5332 246° West  Level FlightAware Approximate
Fri 11:49:00 AM 47.4303 -45.7029 246° West  Level FlightAware Approximate
Fri 11:50:00 AM 47.3781 -45.8722 246° West  Level FlightAware Approximate
Fri 11:51:00 AM 47.3257 -46.0412 245° Southwest  Level FlightAware Approximate
Fri 11:52:00 AM 47.2730 -46.2098 245° Southwest  Level FlightAware Approximate
Fri 11:53:00 AM 47.2201 -46.3781 245° Southwest  Level FlightAware Approximate
Fri 11:54:00 AM 47.1670 -46.5461 245° Southwest  Level FlightAware Approximate
Fri 11:55:00 AM 47.1136 -46.7138 245° Southwest  Level FlightAware Approximate
Fri 11:56:00 AM 47.0599 -46.8811 245° Southwest  Level FlightAware Approximate
Fri 11:57:00 AM 47.0060 -47.0480 245° Southwest  Level FlightAware Approximate
Fri 11:58:00 AM 46.9519 -47.2147 245° Southwest  Level FlightAware Approximate
Fri 11:59:00 AM 46.8975 -47.3810 244° Southwest  Level FlightAware Approximate
Fri 12:00:00 PM 46.8429 -47.5469 244° Southwest  Level FlightAware Approximate
Fri 12:01:00 PM 46.7881 -47.7126 244° Southwest  Level FlightAware Approximate
Fri 12:02:00 PM 46.7330 -47.8778 244° Southwest  Level FlightAware Approximate
Fri 12:03:00 PM 46.6776 -48.0428 244° Southwest  Level FlightAware Approximate
Fri 12:04:00 PM 46.6221 -48.2074 244° Southwest  Level FlightAware Approximate
Fri 12:04:26 PM 46.0000 -49.9167 243° Southwest 490 564 36,000  Level Gander Center
Fri 12:05:00 PM 46.5663 -48.3717 244° Southwest  Level FlightAware Approximate
Fri 12:06:00 PM 46.5102 -48.5356 244° Southwest  Level FlightAware Approximate
Fri 12:07:00 PM 46.4540 -48.6992 244° Southwest  Level FlightAware Approximate
Fri 12:08:00 PM 46.3971 -48.8634 243° Southwest  Level FlightAware Approximate
Fri 12:09:00 PM 46.3400 -49.0274 243° Southwest  Level FlightAware Approximate
Fri 12:10:23 PM 45.9710 -51.1090 243° Southwest 486 559 36,000  Level FlightAware ADS-B
Fri 12:11:42 PM 45.9640 -51.3650 268° West 486 559 36,200 513 Climbing FlightAware ADS-B
Fri 12:12:20 PM 45.9590 -51.5050 267° West 475 547 37,000 923 Climbing FlightAware ADS-B
Fri 12:13:00 PM 45.9550 -51.6350 268° West 476 548 37,400 419 Climbing FlightAware ADS-B
Fri 12:13:46 PM 45.9510 -51.7550 267° West 477 549 37,600 391 Climbing FlightAware ADS-B
Fri 12:14:32 PM 45.9460 -51.9190 268° West 483 556 38,000 231 Climbing FlightAware ADS-B
Fri 12:15:30 PM 45.9400 -52.1130 268° West 485 558 38,000  Level FlightAware ADS-B
Fri 12:16:25 PM 45.9340 -52.2640 267° West 485 558 38,000  Level FlightAware ADS-B
Fri 12:17:50 PM 45.9230 -52.5610 267° West 485 558 38,000  Level FlightAware ADS-B
Fri 12:18:35 PM 45.9170 -52.6880 266° West 485 558 38,000  Level FlightAware ADS-B
Fri 12:19:10 PM 45.9130 -52.8190 268° West 484 557 38,000  Level FlightAware ADS-B
Fri 12:19:55 PM 45.9070 -52.9600 267° West 483 556 38,000  Level FlightAware ADS-B
Fri 12:20:34 PM 45.9010 -53.0820 266° West 482 555 38,000  Level FlightAware ADS-B
Fri 12:21:20 PM 45.8950 -53.2190 266° West 483 556 38,000  Level FlightAware ADS-B
Fri 12:22:00 PM 45.8890 -53.3640 267° West 482 555 38,000  Level FlightAware ADS-B
Fri 12:22:38 PM 45.8830 -53.4770 266° West 481 554 38,000  Level FlightAware ADS-B
Fri 12:23:20 PM 45.8770 -53.6140 266° West 481 554 38,000  Level FlightAware ADS-B
Fri 12:24:02 PM 45.8700 -53.7510 266° West 481 554 38,000  Level FlightAware ADS-B
Fri 12:24:46 PM 45.8630 -53.8880 266° West 480 552 38,000  Level FlightAware ADS-B
Fri 12:25:26 PM 45.8570 -54.0170 266° West 480 552 38,000  Level FlightAware ADS-B
Fri 12:26:10 PM 45.8490 -54.1560 265° West 478 550 38,000  Level FlightAware ADS-B
Fri 12:26:50 PM 45.8420 -54.2810 265° West 478 550 38,000  Level FlightAware ADS-B
Fri 12:27:26 PM 45.8360 -54.3930 266° West 477 549 38,000  Level FlightAware ADS-B
Fri 12:28:07 PM 45.8300 -54.5140 266° West 477 549 38,000  Level FlightAware ADS-B
Fri 12:29:00 PM 45.8200 -54.6750 265° West 476 548 38,000  Level FlightAware ADS-B
Fri 12:29:40 PM 45.8120 -54.8110 265° West 475 547 38,000  Level FlightAware ADS-B
Fri 12:30:25 PM 45.8040 -54.9470 265° West 473 544 38,000  Level FlightAware ADS-B
Fri 12:31:07 PM 45.7970 -55.0620 265° West 473 544 38,000  Level FlightAware ADS-B
Fri 12:31:45 PM 45.7890 -55.2020 265° West 472 543 38,000  Level FlightAware ADS-B
Fri 12:32:40 PM 45.7780 -55.3580 264° West 471 542 38,000  Level FlightAware ADS-B
Fri 12:33:20 PM 45.7700 -55.4960 265° West 471 542 38,000  Level FlightAware ADS-B
Fri 12:34:00 PM 45.7620 -55.6190 265° West 469 540 38,000  Level FlightAware ADS-B
Fri 12:34:40 PM 45.7540 -55.7340 264° West 468 539 38,000  Level FlightAware ADS-B
Fri 12:35:20 PM 45.7450 -55.8670 265° West 468 539 38,000  Level FlightAware ADS-B
Fri 12:36:00 PM 45.7370 -55.9890 265° West 467 537 38,000  Level FlightAware ADS-B
Fri 12:36:35 PM 45.7290 -56.0960 264° West 467 537 38,000  Level FlightAware ADS-B
Fri 12:37:35 PM 45.7160 -56.2800 264° West 466 536 38,000  Level FlightAware ADS-B
Fri 12:38:20 PM 45.7060 -56.4140 264° West 466 536 38,000  Level FlightAware ADS-B
Fri 12:38:57 PM 45.6990 -56.5110 264° West 466 536 38,000  Level FlightAware ADS-B
Fri 12:39:37 PM 45.6890 -56.6380 264° West 465 535 38,000  Level FlightAware ADS-B
Fri 12:40:40 PM 45.6740 -56.8310 264° West 464 534 38,000  Level FlightAware ADS-B
Fri 12:41:43 PM 45.6600 -56.9950 263° West 464 534 38,000  Level FlightAware ADS-B
Fri 12:42:19 PM 45.6520 -57.0880 263° West 464 534 38,000  Level FlightAware ADS-B
Fri 12:43:17 PM 45.6360 -57.3230 265° West 463 533 38,000  Level FlightAware ADS-B
Fri 12:44:01 PM 45.6250 -57.4530 263° West 463 533 38,000  Level FlightAware ADS-B
Fri 12:44:43 PM 45.6150 -57.5830 264° West 463 533 38,000  Level FlightAware ADS-B
Fri 12:45:05 PM 45.6090 -57.6480 263° West 463 533 38,000  Level FlightAware ADS-B
Fri 12:45:47 PM 45.5980 -57.7760 263° West 463 533 38,000  Level FlightAware ADS-B
Fri 12:46:27 PM 45.5880 -57.8970 263° West 465 535 38,000  Level FlightAware ADS-B
Fri 12:47:09 PM 45.5770 -58.0250 263° West 466 536 38,000  Level FlightAware ADS-B
Fri 12:47:55 PM 45.5640 -58.1660 263° West 467 537 38,000  Level FlightAware ADS-B
Fri 12:48:27 PM 45.5550 -58.2640 263° West 467 537 38,000  Level FlightAware ADS-B
Fri 12:49:11 PM 45.5430 -58.3990 263° West 467 537 38,000  Level FlightAware ADS-B
Fri 12:49:51 PM 45.5320 -58.5210 263° West 467 537 38,000  Level FlightAware ADS-B
Fri 12:50:25 PM 45.5220 -58.6230 262° West 469 540 38,000  Level FlightAware ADS-B
Fri 12:51:01 PM 45.5120 -58.7330 263° West 468 539 38,000  Level FlightAware ADS-B
Fri 12:51:45 PM 45.5000 -58.8660 263° West 467 537 38,000  Level FlightAware ADS-B
Fri 12:52:29 PM 45.4870 -59.0000 262° West 465 535 38,000  Level FlightAware ADS-B
Fri 12:53:09 PM 45.4750 -59.1210 262° West 463 533 38,000  Level FlightAware ADS-B
Fri 12:53:53 PM 45.4620 -59.2550 262° West 462 532 38,000  Level FlightAware ADS-B
Fri 12:54:27 PM 45.4520 -59.3570 262° West 460 529 38,000  Level FlightAware ADS-B
Fri 12:55:09 PM 45.4390 -59.4820 262° West 459 528 38,000  Level FlightAware ADS-B
Fri 12:55:50 PM 45.4270 -59.5960 262° West 458 527 38,000  Level FlightAware ADS-B
Fri 12:56:33 PM 45.4140 -59.7310 262° West 456 525 38,000  Level FlightAware ADS-B
Fri 12:57:13 PM 45.4010 -59.8490 261° West 454 522 38,000  Level FlightAware ADS-B
Fri 12:57:57 PM 45.3880 -59.9800 262° West 454 522 38,000  Level FlightAware ADS-B
Fri 12:58:39 PM 45.3740 -60.1040 261° West 453 521 38,000  Level FlightAware ADS-B
Fri 12:59:17 PM 45.3630 -60.2130 262° West 451 519 38,000  Level FlightAware ADS-B
Fri 01:00:01 PM 45.3490 -60.3420 261° West 448 516 38,000  Level FlightAware ADS-B
Fri 01:00:43 PM 45.3350 -60.4640 261° West 448 516 38,000  Level FlightAware ADS-B
Fri 01:01:25 PM 45.3220 -60.5870 261° West 447 514 38,000  Level FlightAware ADS-B
Fri 01:02:09 PM 45.3080 -60.7130 261° West 446 513 38,000  Level FlightAware ADS-B
Fri 01:02:43 PM 45.2970 -60.8090 261° West 446 513 38,000  Level FlightAware ADS-B
Fri 01:03:27 PM 45.2820 -60.9390 261° West 446 513 38,000  Level FlightAware ADS-B
Fri 01:04:16 PM 45.2680 -61.0610 261° West 447 514 38,000  Level FlightAware ADS-B
Fri 01:05:04 PM 45.2530 -61.1790 260° West 447 514 38,000  Level FlightAware ADS-B
Fri 01:05:41 PM 45.2420 -61.2700 260° West 447 514 38,000  Level FlightAware ADS-B
Fri 01:06:30 PM 45.2270 -61.3900 260° West 447 514 38,000  Level FlightAware ADS-B
Fri 01:06:52 PM 45.2200 -61.4440 260° West 447 514 38,000  Level FlightAware ADS-B
Fri 01:07:29 PM 45.2090 -61.5350 260° West 447 514 38,000  Level FlightAware ADS-B
Fri 01:08:29 PM 45.1900 -61.6830 260° West 447 514 38,000  Level FlightAware ADS-B
Fri 01:09:05 PM 45.1790 -61.7710 260° West 447 514 38,000  Level FlightAware ADS-B
Fri 01:09:51 PM 45.1650 -61.8840 260° West 447 514 38,000  Level FlightAware ADS-B
Fri 01:10:27 PM 45.1540 -61.9730 260° West 447 514 38,000  Level FlightAware ADS-B
Fri 01:11:15 PM 45.1400 -62.0900 260° West 447 514 38,000  Level FlightAware ADS-B
Fri 01:11:51 PM 45.1290 -62.1790 260° West 447 514 38,000  Level FlightAware ADS-B
Fri 01:12:52 PM 45.1100 -62.3280 260° West 447 514 38,000  Level FlightAware ADS-B
Fri 01:13:28 PM 45.0990 -62.4170 260° West 447 514 38,000  Level FlightAware ADS-B
Fri 01:17:41 PM 44.9750 -63.3790 260° West 437 503 38,000  Level FlightAware ADS-B
Fri 01:18:21 PM 44.9600 -63.4930 260° West 436 502 38,000  Level FlightAware ADS-B
Fri 01:19:01 PM 44.9440 -63.6040 259° West 435 501 38,000  Level FlightAware ADS-B
Fri 01:19:46 PM 44.9270 -63.7270 259° West 433 498 38,000  Level FlightAware ADS-B
Fri 01:20:26 PM 44.9110 -63.8400 259° West 432 497 38,000  Level FlightAware ADS-B
Fri 01:21:01 PM 44.8980 -63.9370 259° West 431 496 38,000  Level FlightAware ADS-B
Fri 01:21:52 PM 44.8780 -64.0760 259° West 430 495 38,000  Level FlightAware ADS-B
Fri 01:22:24 PM 44.8650 -64.1650 258° West 429 494 38,000  Level FlightAware ADS-B
Fri 01:23:06 PM 44.8480 -64.2790 258° West 429 494 38,000  Level FlightAware ADS-B
Fri 01:23:38 PM 44.8360 -64.3650 259° West 428 493 38,000  Level FlightAware ADS-B
Fri 01:24:09 PM 44.8230 -64.4490 258° West 428 493 38,000  Level FlightAware ADS-B
Fri 01:24:54 PM 44.8050 -64.5740 259° West 430 495 38,000  Level FlightAware ADS-B
Fri 01:25:36 PM 44.7880 -64.6900 258° West 430 495 38,000  Level FlightAware ADS-B
Fri 01:26:20 PM 44.7700 -64.8100 258° West 430 495 38,000  Level FlightAware ADS-B
Fri 01:27:00 PM 44.7530 -64.9170 257° West 431 496 38,000  Level FlightAware ADS-B
Fri 01:27:40 PM 44.7370 -65.0280 259° West 431 496 38,000  Level FlightAware ADS-B
Fri 01:28:24 PM 44.7190 -65.1460 258° West 431 496 38,000  Level FlightAware ADS-B
Fri 01:28:54 PM 44.7060 -65.2290 258° West 431 496 38,000  Level FlightAware ADS-B
Fri 01:29:36 PM 44.6880 -65.3440 258° West 431 496 38,000  Level FlightAware ADS-B
Fri 01:30:14 PM 44.6710 -65.4490 257° West 431 496 38,000  Level FlightAware ADS-B
Fri 01:31:00 PM 44.6520 -65.5750 258° West 430 495 38,000  Level FlightAware ADS-B
Fri 01:31:40 PM 44.6350 -65.6810 257° West 430 495 38,000  Level FlightAware ADS-B
Fri 01:32:20 PM 44.6170 -65.7900 257° West 430 495 38,000  Level FlightAware ADS-B
Fri 01:32:56 PM 44.6020 -65.8880 258° West 429 494 38,000  Level FlightAware ADS-B
Fri 01:33:44 PM 44.5810 -66.0180 257° West 429 494 38,000  Level FlightAware ADS-B
Fri 01:34:30 PM 44.5600 -66.1440 257° West 429 494 38,000  Level FlightAware ADS-B
Fri 01:35:23 PM 44.5370 -66.2880 257° West 429 494 38,000  Level FlightAware ADS-B
Fri 01:36:00 PM 44.5200 -66.3860 256° West 430 495 38,000  Level FlightAware ADS-B
Fri 01:36:40 PM 44.5020 -66.4960 257° West 429 494 38,000  Level FlightAware ADS-B
Fri 01:37:22 PM 44.4840 -66.6030 257° West 428 493 38,000  Level FlightAware ADS-B
Fri 01:38:02 PM 44.4650 -66.7170 257° West 428 493 38,000  Level FlightAware ADS-B
Fri 01:38:40 PM 44.4480 -66.8170 257° West 428 493 38,000  Level FlightAware ADS-B
Fri 01:39:20 PM 44.4290 -66.9260 256° West 428 493 38,000  Level FlightAware ADS-B
Fri 01:40:02 PM 44.4170 -67.0380 262° West 429 494 38,000 71 Level FlightAware ADS-B
Fri 01:40:44 PM 44.4140 -67.1560 268° West 433 498 38,100 419 Climbing FlightAware ADS-B
Fri 01:41:28 PM 44.4130 -67.2800 269° West 434 499 38,600 690 Climbing FlightAware ADS-B
Fri 01:42:11 PM 44.4120 -67.4010 269° West 433 498 39,100 643 Climbing FlightAware ADS-B
Fri 01:42:52 PM 44.4100 -67.5140 269° West 431 496 39,500 701 Climbing FlightAware ADS-B
Fri 01:43:28 PM 44.4080 -67.6120 268° West 425 489 40,000 405 Climbing FlightAware ADS-B
Fri 01:44:06 PM 44.4060 -67.7170 269° West 423 487 40,000  Level FlightAware ADS-B
Fri 01:44:52 PM 44.4040 -67.8420 269° West 422 486 40,000  Level FlightAware ADS-B
Fri 01:45:26 PM 44.4020 -67.9340 268° West 421 484 40,000  Level FlightAware ADS-B
Fri 01:46:10 PM 44.4000 -68.0540 269° West 421 484 40,000  Level FlightAware ADS-B
Fri 01:46:50 PM 44.3980 -68.1560 268° West 420 483 40,000  Level FlightAware ADS-B
Fri 01:47:30 PM 44.3950 -68.2700 268° West 420 483 40,000  Level FlightAware ADS-B
Fri 01:48:12 PM 44.3930 -68.3840 269° West 421 484 40,000  Level FlightAware ADS-B
Fri 01:48:55 PM 44.3900 -68.5020 268° West 422 486 40,000  Level FlightAware ADS-B
Fri 01:49:40 PM 44.3870 -68.6240 268° West 422 486 40,000  Level FlightAware ADS-B
Fri 01:50:12 PM 44.3850 -68.7080 268° West 423 487 40,000  Level FlightAware ADS-B
Fri 01:50:54 PM 44.3820 -68.8230 268° West 424 488 40,000  Level FlightAware ADS-B
Fri 01:51:39 PM 44.3780 -68.9480 267° West 426 490 40,000  Level FlightAware ADS-B
Fri 01:52:12 PM 44.3760 -69.0380 268° West 427 491 40,000  Level FlightAware ADS-B
Fri 01:52:56 PM 44.3720 -69.1570 267° West 428 493 40,000  Level FlightAware ADS-B
Fri 01:53:33 PM 44.3690 -69.2640 268° West 428 493 40,000  Level FlightAware ADS-B
Fri 01:54:16 PM 44.3650 -69.3810 267° West 428 493 40,000  Level FlightAware ADS-B
Fri 01:55:00 PM 44.3610 -69.5010 267° West 428 493 40,000  Level FlightAware ADS-B
Fri 01:55:40 PM 44.3570 -69.6100 267° West 425 489 40,000 -71 Level FlightAware ADS-B
Fri 01:56:24 PM 44.3530 -69.7310 267° West 423 487 39,900 -714 Descending FlightAware ADS-B
Fri 01:57:04 PM 44.3490 -69.8400 267° West 427 491 39,000 -1,184 Descending FlightAware ADS-B
Fri 01:57:40 PM 44.3450 -69.9430 267° West 430 495 38,400 -789 Descending FlightAware ADS-B
Fri 01:58:20 PM 44.3410 -70.0520 267° West 420 483 38,000 -293 Descending FlightAware ADS-B
Fri 01:59:02 PM 44.3370 -70.1630 267° West 413 475 38,000  Level FlightAware ADS-B
Fri 01:59:38 PM 44.3330 -70.2600 267° West 413 475 38,000  Level FlightAware ADS-B
Fri 02:00:24 PM 44.3280 -70.3820 267° West 413 475 38,000  Level FlightAware ADS-B
Fri 02:01:00 PM 44.3240 -70.4770 267° West 413 475 38,000  Level FlightAware ADS-B
Fri 02:01:44 PM 44.3190 -70.5950 267° West 413 475 38,000  Level FlightAware ADS-B
Fri 02:02:28 PM 44.3140 -70.7110 267° West 413 475 38,000  Level FlightAware ADS-B
Fri 02:03:06 PM 44.3100 -70.8080 267° West 413 475 38,000  Level FlightAware ADS-B
Fri 02:03:48 PM 44.3050 -70.9230 267° West 413 475 38,000  Level FlightAware ADS-B
Fri 02:04:28 PM 44.3000 -71.0300 266° West 413 475 38,000  Level FlightAware ADS-B
Fri 02:05:10 PM 44.2950 -71.1430 267° West 412 474 38,000  Level FlightAware ADS-B
Fri 02:05:50 PM 44.2900 -71.2470 266° West 411 473 38,000  Level FlightAware ADS-B
Fri 02:06:23 PM 44.2860 -71.3300 266° West 412 474 38,000  Level FlightAware ADS-B
Fri 02:07:06 PM 44.2800 -71.4490 266° West 411 473 38,000  Level FlightAware ADS-B
Fri 02:07:46 PM 44.2740 -71.5550 266° West 410 472 38,000  Level FlightAware ADS-B
Fri 02:08:32 PM 44.2680 -71.6750 266° West 410 472 38,000  Level FlightAware ADS-B
Fri 02:09:16 PM 44.2620 -71.7890 266° West 409 471 38,000  Level FlightAware ADS-B
Fri 02:09:46 PM 44.2580 -71.8690 266° West 410 472 38,000  Level FlightAware ADS-B
Fri 02:10:32 PM 44.2510 -71.9890 265° West 410 472 38,000  Level FlightAware ADS-B
Fri 02:11:39 PM 44.2420 -72.1540 266° West 409 471 38,000  Level FlightAware ADS-B
Fri 02:12:19 PM 44.2360 -72.2610 266° West 409 471 38,000  Level FlightAware ADS-B
Fri 02:13:03 PM 44.2280 -72.3860 265° West 407 468 38,000  Level FlightAware ADS-B
Fri 02:13:43 PM 44.2220 -72.4890 265° West 406 467 38,000  Level FlightAware ADS-B
Fri 02:14:26 PM 44.2160 -72.5980 266° West 405 466 38,000  Level FlightAware ADS-B
Fri 02:15:01 PM 44.2100 -72.6890 265° West 405 466 38,000  Level FlightAware ADS-B
Fri 02:15:49 PM 44.2030 -72.8110 265° West 405 466 38,000  Level FlightAware ADS-B
Fri 02:16:27 PM 44.1960 -72.9160 265° West 405 466 38,000  Level FlightAware ADS-B
Fri 02:17:05 PM 44.1900 -73.0140 265° West 404 465 38,000  Level FlightAware ADS-B
Fri 02:17:41 PM 44.1840 -73.1060 265° West 404 465 38,000  Level FlightAware ADS-B
Fri 02:18:23 PM 44.1770 -73.2150 265° West 404 465 38,000  Level FlightAware ADS-B
Fri 02:19:16 PM 44.1680 -73.3500 265° West 405 466 38,000  Level FlightAware ADS-B
Fri 02:20:01 PM 44.1600 -73.4650 265° West 405 466 38,000  Level FlightAware ADS-B
Fri 02:20:41 PM 44.1530 -73.5690 265° West 405 466 38,000  Level FlightAware ADS-B
Fri 02:21:21 PM 44.1460 -73.6700 265° West 405 466 38,000  Level FlightAware ADS-B
Fri 02:22:06 PM 44.1370 -73.7880 264° West 405 466 38,000  Level FlightAware ADS-B
Fri 02:22:46 PM 44.1300 -73.8940 265° West 405 466 38,000  Level FlightAware ADS-B
Fri 02:23:31 PM 44.1210 -74.0110 264° West 406 467 38,000  Level FlightAware ADS-B
Fri 02:24:11 PM 44.1140 -74.1150 265° West 406 467 38,000  Level FlightAware ADS-B
Fri 02:24:56 PM 44.1050 -74.2310 264° West 406 467 38,000  Level FlightAware ADS-B
Fri 02:25:36 PM 44.0970 -74.3350 264° West 407 468 38,000  Level FlightAware ADS-B
Fri 02:26:21 PM 44.0880 -74.4520 264° West 407 468 38,000  Level FlightAware ADS-B
Fri 02:27:01 PM 44.0800 -74.5570 264° West 407 468 38,000  Level FlightAware ADS-B
Fri 02:27:46 PM 44.0710 -74.6750 264° West 407 468 38,000  Level FlightAware ADS-B
Fri 02:28:26 PM 44.0620 -74.7790 263° West 407 468 38,000  Level FlightAware ADS-B
Fri 02:29:06 PM 44.0540 -74.8820 264° West 407 468 38,000  Level FlightAware ADS-B
Fri 02:29:46 PM 44.0460 -74.9870 264° West 407 468 38,000  Level FlightAware ADS-B
Fri 02:30:37 PM 44.0350 -75.1210 264° West 408 470 38,000  Level FlightAware ADS-B
Fri 02:31:21 PM 44.0250 -75.2350 263° West 408 470 38,000  Level FlightAware ADS-B
Fri 02:32:01 PM 44.0160 -75.3410 263° West 409 471 38,000  Level FlightAware ADS-B
Fri 02:32:43 PM 44.0070 -75.4480 263° West 409 471 38,000  Level FlightAware ADS-B
Fri 02:33:23 PM 43.9980 -75.5540 263° West 409 471 38,000  Level FlightAware ADS-B
Fri 02:34:09 PM 43.9870 -75.6740 263° West 411 473 38,000  Level FlightAware ADS-B
Fri 02:34:51 PM 43.9780 -75.7830 263° West 413 475 38,000  Level FlightAware ADS-B
Fri 02:35:25 PM 43.9700 -75.8720 263° West 414 476 38,000  Level FlightAware ADS-B
Fri 02:36:07 PM 43.9600 -75.9850 263° West 416 479 38,000  Level FlightAware ADS-B
Fri 02:36:49 PM 43.9530 -76.0930 265° West 416 479 38,000  Level FlightAware ADS-B
Fri 02:37:30 PM 43.9450 -76.2010 264° West 415 478 38,000  Level FlightAware ADS-B
Fri 02:38:02 PM 43.9380 -76.2860 264° West 415 478 38,000  Level FlightAware ADS-B
Fri 02:38:43 PM 43.9300 -76.3940 264° West 415 478 38,000  Level FlightAware ADS-B
Fri 02:39:23 PM 43.9210 -76.5010 263° West 415 478 38,000  Level FlightAware ADS-B
Fri 02:40:03 PM 43.9130 -76.6070 264° West 414 476 38,000  Level FlightAware ADS-B
Fri 02:40:39 PM 43.9050 -76.7040 264° West 414 476 38,000  Level FlightAware ADS-B
Fri 02:41:23 PM 43.8960 -76.8180 264° West 415 478 38,000  Level FlightAware ADS-B
Fri 02:42:01 PM 43.8880 -76.9170 264° West 416 479 38,000  Level FlightAware ADS-B
Fri 02:42:41 PM 43.8790 -77.0250 263° West 416 479 38,000  Level FlightAware ADS-B
Fri 02:43:21 PM 43.8700 -77.1290 263° West 415 478 38,000  Level FlightAware ADS-B
Fri 02:44:02 PM 43.8610 -77.2360 263° West 415 478 38,000  Level FlightAware ADS-B
Fri 02:44:45 PM 43.8510 -77.3520 263° West 416 479 38,000  Level FlightAware ADS-B
Fri 02:45:25 PM 43.8420 -77.4540 263° West 417 480 38,000  Level FlightAware ADS-B
Fri 02:46:21 PM 43.8290 -77.6010 263° West 418 481 38,000  Level FlightAware ADS-B
Fri 02:47:04 PM 43.8190 -77.7190 263° West 418 481 38,000  Level FlightAware ADS-B
Fri 02:47:49 PM 43.8080 -77.8380 263° West 419 482 38,000  Level FlightAware ADS-B
Fri 02:48:29 PM 43.7980 -77.9450 263° West 420 483 38,000  Level FlightAware ADS-B
Fri 02:49:13 PM 43.7870 -78.0610 263° West 420 483 38,000  Level FlightAware ADS-B
Fri 02:49:53 PM 43.7770 -78.1680 263° West 421 484 38,000  Level FlightAware ADS-B
Fri 02:50:35 PM 43.7670 -78.2820 263° West 422 486 38,000  Level FlightAware ADS-B
Fri 02:51:19 PM 43.7560 -78.3970 262° West 424 488 38,000  Level FlightAware ADS-B
Fri 02:51:59 PM 43.7450 -78.5040 262° West 424 488 38,000  Level FlightAware ADS-B
Fri 02:52:43 PM 43.7340 -78.6230 263° West 424 488 38,000  Level FlightAware ADS-B
Fri 02:53:23 PM 43.7230 -78.7320 262° West 425 489 38,000  Level FlightAware ADS-B
Fri 02:53:59 PM 43.7140 -78.8260 262° West 426 490 38,000  Level FlightAware ADS-B
Fri 02:54:41 PM 43.7020 -78.9400 262° West 428 493 38,000  Level FlightAware ADS-B
Fri 02:55:25 PM 43.6900 -79.0600 262° West 431 496 38,000 375 Level FlightAware ADS-B
Fri 02:56:01 PM 43.6800 -79.1580 262° West 432 497 38,500 632 Climbing FlightAware ADS-B
Fri 02:56:41 PM 43.6690 -79.2630 262° West 434 499 38,800 750 Climbing FlightAware ADS-B
Fri 02:57:21 PM 43.6570 -79.3770 262° West 428 493 39,500 593 Climbing FlightAware ADS-B
Fri 02:58:02 PM 43.6460 -79.4860 262° West 437 503 39,600 220 Climbing FlightAware ADS-B
Fri 02:58:43 PM 43.6340 -79.6010 262° West 440 506 39,800 276 Climbing FlightAware ADS-B
Fri 02:59:29 PM 43.6200 -79.7270 261° West 443 510 40,000 141 Climbing FlightAware ADS-B
Fri 03:00:08 PM 43.6080 -79.8370 261° West 451 519 40,000  Level FlightAware ADS-B
Fri 03:00:54 PM 43.5940 -79.9670 262° West 454 522 40,000  Level FlightAware ADS-B
Fri 03:01:32 PM 43.5820 -80.0740 261° West 456 525 40,000  Level FlightAware ADS-B
Fri 03:02:16 PM 43.5680 -80.2040 262° West 462 532 40,000  Level FlightAware ADS-B
Fri 03:03:12 PM 43.5490 -80.3720 261° West 468 539 40,000  Level FlightAware ADS-B
Fri 03:03:56 PM 43.5340 -80.4980 261° West 472 543 40,000  Level FlightAware ADS-B
Fri 03:04:36 PM 43.5200 -80.6180 261° West 477 549 40,000  Level FlightAware ADS-B
Fri 03:05:12 PM 43.5070 -80.7280 261° West 482 555 40,000  Level FlightAware ADS-B
Fri 03:05:53 PM 43.4930 -80.8540 261° West 484 557 40,000  Level FlightAware ADS-B
Fri 03:06:35 PM 43.4780 -80.9770 261° West 487 560 40,000  Level FlightAware ADS-B
Fri 03:07:16 PM 43.4620 -81.1060 260° West 490 564 40,000  Level FlightAware ADS-B
Fri 03:08:00 PM 43.4460 -81.2410 261° West 491 565 40,000  Level FlightAware ADS-B
Fri 03:08:28 PM 43.4360 -81.3250 261° West 492 566 40,000  Level FlightAware ADS-B
Fri 03:09:08 PM 43.4200 -81.4500 260° West 496 571 40,000  Level FlightAware ADS-B
Fri 03:09:50 PM 43.4040 -81.5800 260° West 498 573 40,000  Level FlightAware ADS-B
Fri 03:10:28 PM 43.3890 -81.6990 260° West 501 577 40,000  Level FlightAware ADS-B
Fri 03:11:16 PM 43.3730 -81.8250 260° West 504 580 40,000  Level FlightAware ADS-B
Fri 03:11:58 PM 43.3570 -81.9560 261° West 505 581 40,000  Level FlightAware ADS-B
Fri 03:12:33 PM 43.3400 -82.0830 260° West 508 585 40,000  Level FlightAware ADS-B
Fri 03:13:17 PM 43.3210 -82.2290 260° West 507 583 40,000  Level FlightAware ADS-B
Fri 03:14:02 PM 43.3030 -82.3670 260° West 499 574 40,000  Level FlightAware ADS-B
Fri 03:14:55 PM 43.2820 -82.5270 260° West 501 577 40,000  Level FlightAware ADS-B
Fri 03:15:35 PM 43.2650 -82.6530 260° West 499 574 40,000 -68 Level FlightAware ADS-B
Fri 03:16:23 PM 43.2310 -82.8090 253° West 506 582 39,900 -667 Descending FlightAware ADS-B
Fri 03:17:05 PM 43.1970 -82.9340 250° West 507 583 39,000 -1,326 Descending FlightAware ADS-B
Fri 03:17:49 PM 43.1590 -83.0670 249° West 521 600 38,000 -805 Descending FlightAware ADS-B
Fri 03:18:27 PM 43.1260 -83.1850 249° West 520 598 37,900 -366 Descending FlightAware ADS-B
Fri 03:19:11 PM 43.0880 -83.3190 249° West 511 588 37,500 -750 Descending FlightAware ADS-B
Fri 03:19:55 PM 43.0520 -83.4490 249° West 518 596 36,800 -929 Descending FlightAware ADS-B
Fri 03:20:35 PM 43.0170 -83.5730 249° West 511 588 36,200 -1,077 Descending FlightAware ADS-B
Fri 03:21:13 PM 42.9840 -83.6860 248° West 491 565 35,400 -1,653 Descending FlightAware ADS-B
Fri 03:22:13 PM 42.9750 -83.8560 266° West 441 507 33,500 -1,962 Descending FlightAware ADS-B
Fri 03:22:57 PM 42.9980 -83.9760 285° West 446 513 32,000 -1,084 Descending FlightAware ADS-B
Fri 03:23:36 PM 43.0190 -84.0810 285° West 453 521 32,000  Level FlightAware ADS-B
Fri 03:24:11 PM 43.0380 -84.1780 285° West 453 521 32,000  Level FlightAware ADS-B
Fri 03:24:51 PM 43.0540 -84.2930 281° West 470 541 32,000  Level FlightAware ADS-B
Fri 03:25:39 PM 43.0280 -84.4320 256° West 501 577 32,000  Level FlightAware ADS-B
Fri 03:26:11 PM 42.9780 -84.5080 228° Southwest 518 596 32,000  Level FlightAware ADS-B
Fri 03:26:55 PM 42.8980 -84.5990 220° Southwest 506 582 32,000  Level FlightAware ADS-B
Fri 03:27:35 PM 42.8700 -84.7160 252° West 479 551 32,000  Level FlightAware ADS-B
Fri 03:28:14 PM 42.8580 -84.8340 262° West 479 551 32,000  Level FlightAware ADS-B
Fri 03:29:00 PM 42.8440 -84.9670 262° West 479 551 32,000  Level FlightAware ADS-B
Fri 03:29:41 PM 42.8310 -85.0930 262° West 478 550 32,000  Level FlightAware ADS-B
Fri 03:30:21 PM 42.8180 -85.2100 261° West 478 550 32,000  Level FlightAware ADS-B
Fri 03:30:57 PM 42.8070 -85.3190 262° West 479 551 32,000 -917 Level FlightAware ADS-B
Fri 03:31:33 PM 42.7950 -85.4260 261° West 474 545 30,900 -2,354 Descending FlightAware ADS-B
Fri 03:32:16 PM 42.7770 -85.5530 259° West 483 556 28,900 -2,500 Descending FlightAware ADS-B
Fri 03:32:57 PM 42.7560 -85.6720 257° West 480 552 27,400 -2,118 Descending FlightAware ADS-B
Fri 03:33:41 PM 42.7320 -85.8010 256° West 468 539 25,900 -2,000 Descending FlightAware ADS-B
Fri 03:34:21 PM 42.7120 -85.9130 256° West 459 528 24,600 -2,025 Descending FlightAware ADS-B
Fri 03:35:01 PM 42.6920 -86.0230 256° West 450 518 23,200 -2,049 Descending FlightAware ADS-B
Fri 03:35:43 PM 42.6710 -86.1380 256° West 441 507 21,800 -2,057 Descending FlightAware ADS-B
Fri 03:36:11 PM 42.6570 -86.2090 255° West 437 503 20,800 -1,500 Descending FlightAware ADS-B
Fri 03:36:55 PM 42.6350 -86.3280 256° West 431 496 20,000 -1,295 Descending FlightAware ADS-B
Fri 03:37:39 PM 42.6140 -86.4420 256° West 416 479 18,900 -1,760 Descending FlightAware ADS-B
Fri 03:38:10 PM 42.5990 -86.5200 255° West 411 473 17,800 -2,108 Descending FlightAware ADS-B
Fri 03:38:53 PM 42.5800 -86.6250 256° West 404 465 16,300 -1,953 Descending FlightAware ADS-B
Fri 03:39:36 PM 42.5580 -86.7290 254° West 394 453 15,000 -1,899 Descending FlightAware ADS-B
Fri 03:40:12 PM 42.5380 -86.8100 251° West 388 447 13,800 -1,870 Descending FlightAware ADS-B
Fri 03:40:53 PM 42.5110 -86.9070 249° West 377 434 12,600 -1,902 Descending FlightAware ADS-B
Fri 03:41:34 PM 42.4870 -86.9940 250° West 371 427 11,200 -1,929 Descending FlightAware ADS-B
Fri 03:42:17 PM 42.4620 -87.0860 250° West 363 418 9,900 -1,400 Descending FlightAware ADS-B
Fri 03:42:34 PM 42.4520 -87.1230 250° West 360 414 9,800 -154 Descending FlightAware ADS-B
Fri 03:42:56 PM 42.4390 -87.1700 249° West 360 414 9,800  Level FlightAware ADS-B
Fri 03:43:29 PM 42.4220 -87.2350 251° West 325 374 9,800 -105 Level FlightAware ADS-B
Fri 03:43:53 PM 42.4090 -87.2790 248° West 303 349 9,700 -615 Descending FlightAware ADS-B
Fri 03:44:08 PM 42.4020 -87.3060 251° West 299 344 9,400 -1,067 Descending FlightAware ADS-B
Fri 03:44:38 PM 42.3870 -87.3590 249° West 297 342 8,900 -667 Descending FlightAware ADS-B
Fri 03:45:02 PM 42.3760 -87.3990 250° West 297 342 8,800 -118 Descending FlightAware ADS-B
Fri 03:45:29 PM 42.3630 -87.4480 250° West 297 342 8,800 -125 Level FlightAware ADS-B
Fri 03:45:50 PM 42.3570 -87.4820 257° West 286 329 8,700 -490 Descending FlightAware ADS-B
Fri 03:46:18 PM 42.3600 -87.5300 275° West 270 311 8,400 -712 Descending FlightAware ADS-B
Fri 03:46:49 PM 42.3640 -87.5810 276° West 254 292 8,000 -800 Descending FlightAware ADS-B
Fri 03:47:03 PM 42.3660 -87.6050 276° West 246 283 7,800 -333 Descending FlightAware ADS-B
Fri 03:47:25 PM 42.3680 -87.6370 275° West 225 259 7,800  Level FlightAware ADS-B
Fri 03:47:53 PM 42.3690 -87.6710 272° West 225 259 7,800  Level FlightAware ADS-B
Fri 03:48:08 PM 42.3430 -87.6730 183° South 209 241 7,800  Level FlightAware ADS-B
Fri 03:48:36 PM 42.3200 -87.6560 151° Southeast 206 237 7,800  Level FlightAware ADS-B
Fri 03:49:00 PM 42.3030 -87.6360 139° Southeast 206 237 7,800 -255 Level FlightAware ADS-B
Fri 03:49:23 PM 42.2870 -87.6180 140° Southeast 204 235 7,600 -811 Descending FlightAware ADS-B
Fri 03:49:37 PM 42.2760 -87.6040 137° Southeast 204 235 7,300 -1,116 Descending FlightAware ADS-B
Fri 03:50:06 PM 42.2560 -87.5800 138° Southeast 202 232 6,800 -1,125 Descending FlightAware ADS-B
Fri 03:50:25 PM 42.2410 -87.5680 149° Southeast 204 235 6,400 -1,071 Descending FlightAware ADS-B
Fri 03:50:34 PM 42.2320 -87.5670 175° South 205 236 6,300 -1,000 Descending FlightAware ADS-B
Fri 03:50:49 PM 42.2190 -87.5770 210° Southwest 206 237 6,000 -1,111 Descending FlightAware ADS-B
Fri 03:51:01 PM 42.2130 -87.5880 234° Southwest 207 238 5,800 -1,024 Descending FlightAware ADS-B
Fri 03:51:30 PM 42.2030 -87.6240 249° West 207 238 5,300 -947 Descending FlightAware ADS-B
Fri 03:51:58 PM 42.1930 -87.6570 248° West 203 234 4,900 -667 Descending FlightAware ADS-B
Fri 03:52:24 PM 42.1840 -87.6870 248° West 200 230 4,700 -545 Descending FlightAware ADS-B
Fri 03:52:42 PM 42.1720 -87.7030 225° Southwest 195 224 4,500 -652 Descending FlightAware ADS-B
Fri 03:53:10 PM 42.1530 -87.7240 219° Southwest 191 220 4,200 -536 Descending FlightAware ADS-B
Fri 03:53:38 PM 42.1340 -87.7460 221° Southwest 189 217 4,000 -706 Descending FlightAware ADS-B
Fri 03:54:01 PM 42.1190 -87.7620 218° Southwest 187 215 3,600 -1,149 Descending FlightAware ADS-B
Fri 03:54:25 PM 42.1020 -87.7810 220° Southwest 188 216 3,100 -1,019 Descending FlightAware ADS-B
Fri 03:54:54 PM 42.0830 -87.8020 219° Southwest 190 219 2,700 -955 Descending FlightAware ADS-B
Fri 03:55:09 PM 42.0730 -87.8130 219° Southwest 192 221 2,400 -1,077 Descending FlightAware ADS-B
Fri 03:55:33 PM 42.0570 -87.8310 220° Southwest 184 212 2,000 -923 Descending FlightAware ADS-B
Fri 03:56:01 PM 42.0400 -87.8500 220° Southwest 161 185 1,600 -857 Descending FlightAware ADS-B
Fri 03:56:15 PM 42.0320 -87.8590 220° Southwest 153 176 1,400 -977 Descending FlightAware ADS-B
Fri 03:56:44 PM 42.0160 -87.8760 218° Southwest 149 171 900 -913 Descending FlightAware ADS-B
Fri 03:57:01 PM 42.0080 -87.8850 220° Southwest 144 166 700 -732 Descending FlightAware ADS-B
Fri 03:57:25 PM 41.9950 -87.8990 219° Southwest 150 173 400 -750 Descending FlightAware ADS-B
Fri 03:57:54 PM 41.9850 -87.9100 219° Southwest 46 53 -828 Descending FlightAware ADS-B
Fri 03:58:21 PM 41.9820 -87.9140 225° Southwest 46 53  Level FlightAware ADS-B
Fri 03:59:24 PM 41.9820 -87.9110 90° East 21 24  Level FlightAware ADS-B
Fri 03:59:40 PM 41.9820 -87.9100 90° East 32 37  Level FlightAware ADS-B

Login

Don't have an account? Register now (free) for customized features, flight alerts, and more!